Time;durP1;ratioP1;P1;durP2;ratioP2;P2;SDS_P1;SDS_P2;PMS_P1;PMS_P2;Temp;Humidity;BMP_temperature;BMP_pressure;BME280_temperature;BME280_humidity;BME280_pressure;Samples;Min_cycle;Max_cycle;Signal;HPM_P1;HPM_P2
2024/01/11 00:02:07;;;;;;;13.77;7.83;;;1.20;1.00;;;;;;10408248;28;20245;-81
2024/01/11 00:07:29;;;;;;;17.20;9.10;;;1.20;1.00;;;;;;10436135;28;20200;-79
2024/01/11 00:12:50;;;;;;;14.50;9.70;;;1.20;1.00;;;;;;10422375;28;20198;-87
2024/01/11 00:18:12;;;;;;;15.27;8.27;;;1.30;1.00;;;;;;10437748;28;20195;-86
2024/01/11 00:23:33;;;;;;;15.23;9.03;;;1.20;1.00;;;;;;10424245;28;20237;-86
2024/01/11 00:28:54;;;;;;;18.57;10.50;;;1.20;1.00;;;;;;10442680;28;20217;-81
2024/01/11 00:34:16;;;;;;;12.00;7.67;;;1.20;1.00;;;;;;10428510;28;20197;-80
2024/01/11 00:39:37;;;;;;;11.93;7.93;;;1.30;1.00;;;;;;10390684;28;20486;-86
2024/01/11 00:44:58;;;;;;;9.73;6.63;;;1.30;1.00;;;;;;10381064;28;20250;-83
2024/01/11 00:50:20;;;;;;;7.83;5.67;;;1.30;1.00;;;;;;10421931;28;20274;-84
2024/01/11 00:55:41;;;;;;;7.27;4.47;;;1.30;1.00;;;;;;10419986;28;20208;-79
2024/01/11 01:01:08;;;;;;;6.67;4.60;;;1.20;1.00;;;;;;10416678;28;20243;-85
2024/01/11 01:06:30;;;;;;;5.97;4.83;;;1.20;1.00;;;;;;10422092;28;20207;-81
2024/01/11 01:11:51;;;;;;;5.60;4.23;;;1.30;1.00;;;;;;10442377;28;20287;-81
2024/01/11 01:17:12;;;;;;;7.07;4.23;;;1.30;99.90;;;;;;10442478;28;20397;-81
2024/01/11 01:22:37;;;;;;;8.60;4.87;;;1.40;1.00;;;;;;10414397;28;20267;-81
2024/01/11 01:28:00;;;;;;;6.77;4.80;;;1.40;99.90;;;;;;10392959;28;20205;-80
2024/01/11 01:33:21;;;;;;;6.47;4.47;;;1.40;1.00;;;;;;10429944;28;20211;-85
2024/01/11 01:38:43;;;;;;;6.43;4.53;;;1.40;1.00;;;;;;10414316;28;20207;-82
2024/01/11 01:44:04;;;;;;;10.23;5.37;;;1.50;1.00;;;;;;10399974;28;20238;-81
2024/01/11 01:49:26;;;;;;;10.33;5.20;;;1.50;99.90;;;;;;10428446;28;20188;-83
2024/01/11 01:54:49;;;;;;;7.50;5.10;;;1.40;1.00;;;;;;10412850;28;20188;-86
2024/01/11 02:00:12;;;;;;;8.67;5.97;;;1.40;58.30;;;;;;10412520;28;20247;-86
2024/01/11 02:05:33;;;;;;;9.33;4.87;;;1.40;99.90;;;;;;10425264;28;20501;-82
2024/01/11 02:10:55;;;;;;;8.40;5.17;;;1.50;1.00;;;;;;10426430;28;20489;-87
2024/01/11 02:16:16;;;;;;;9.70;5.40;;;1.40;47.80;;;;;;10426607;28;20195;-85
2024/01/11 02:21:38;;;;;;;7.73;4.93;;;1.50;1.00;;;;;;10425889;28;20233;-84
2024/01/11 02:27:01;;;;;;;8.90;5.00;;;1.50;99.90;;;;;;10435544;28;20207;-86
2024/01/11 02:32:22;;;;;;;7.27;4.30;;;1.50;1.00;;;;;;10434456;28;20208;-86
2024/01/11 02:37:44;;;;;;;5.13;3.70;;;1.60;99.90;;;;;;10438210;28;20466;-85
2024/01/11 02:43:12;;;;;;;6.37;4.13;;;1.60;1.00;;;;;;10397839;28;20235;-80
2024/01/11 02:48:33;;;;;;;8.03;4.67;;;1.60;99.90;;;;;;10391554;28;20268;-85
2024/01/11 02:53:54;;;;;;;7.43;4.77;;;1.60;1.00;;;;;;10424715;28;20208;-87
2024/01/11 02:59:16;;;;;;;7.93;4.70;;;1.60;1.00;;;;;;10387446;28;20236;-87
2024/01/11 03:04:37;;;;;;;8.27;4.97;;;1.50;99.90;;;;;;10434479;28;20231;-81
2024/01/11 03:09:59;;;;;;;8.13;4.70;;;1.60;93.20;;;;;;10423750;28;20185;-81
2024/01/11 03:15:20;;;;;;;7.43;4.30;;;1.50;1.00;;;;;;10437637;28;20245;-80
2024/01/11 03:20:42;;;;;;;5.87;3.80;;;1.60;99.90;;;;;;10423125;28;20219;-84
2024/01/11 03:26:03;;;;;;;7.57;4.57;;;1.60;95.80;;;;;;10444584;28;20202;-80
2024/01/11 03:31:24;;;;;;;8.00;4.50;;;1.50;99.90;;;;;;10439307;28;20210;-79
2024/01/11 03:36:46;;;;;;;5.90;4.10;;;1.50;1.00;;;;;;10435874;28;20490;-79
2024/01/11 03:42:07;;;;;;;6.73;4.10;;;1.50;99.90;;;;;;10422652;28;20239;-79
2024/01/11 03:47:29;;;;;;;9.50;4.03;;;1.50;99.90;;;;;;10436614;28;20219;-85
2024/01/11 03:52:50;;;;;;;5.40;3.80;;;1.60;1.00;;;;;;10408552;28;20198;-83
2024/01/11 03:58:11;;;;;;;8.03;4.97;;;1.50;99.90;;;;;;10407860;28;20204;-85
2024/01/11 04:03:32;;;;;;;11.93;7.07;;;1.50;99.90;;;;;;10423008;28;20220;-81
2024/01/11 04:08:54;;;;;;;10.57;5.90;;;1.40;40.70;;;;;;10436189;28;20191;-81
2024/01/11 04:14:17;;;;;;;11.03;5.17;;;1.40;99.90;;;;;;10422064;28;20198;-80
2024/01/11 04:19:39;;;;;;;7.63;4.67;;;1.40;1.00;;;;;;10422051;28;20518;-82
2024/01/11 04:25:01;;;;;;;8.87;5.97;;;1.40;1.00;;;;;;10434664;28;20237;-85
2024/01/11 04:30:22;;;;;;;6.87;4.57;;;1.40;99.90;;;;;;10416701;28;20235;-87
2024/01/11 04:35:43;;;;;;;6.20;4.17;;;1.40;99.90;;;;;;10434893;28;20209;-83
2024/01/11 04:41:12;;;;;;;6.17;4.30;;;1.40;99.90;;;;;;10435208;28;20226;-79
2024/01/11 04:46:35;;;;;;;7.40;4.23;;;1.40;1.00;;;;;;10443152;28;20386;-84
2024/01/11 04:51:56;;;;;;;6.23;4.37;;;1.50;6.30;;;;;;10429846;28;20218;-80
2024/01/11 04:57:17;;;;;;;8.47;4.47;;;1.50;1.00;;;;;;10428949;28;20200;-85
2024/01/11 05:02:39;;;;;;;8.27;4.40;;;1.60;1.00;;;;;;10444172;28;20235;-85
2024/01/11 05:08:00;;;;;;;6.07;4.37;;;1.50;1.00;;;;;;10441187;28;20288;-80
2024/01/11 05:13:22;;;;;;;8.60;4.00;;;1.50;99.90;;;;;;10427901;28;20433;-79
2024/01/11 05:18:44;;;;;;;8.47;4.43;;;1.50;99.90;;;;;;10471712;28;20225;-86
2024/01/11 05:24:06;;;;;;;10.67;5.50;;;1.60;1.00;;;;;;10444869;28;20418;-84
2024/01/11 05:29:29;;;;;;;18.57;7.90;;;1.50;1.00;;;;;;10448141;28;20222;-85
2024/01/11 05:34:51;;;;;;;8.30;5.13;;;1.50;1.00;;;;;;10443952;28;20195;-80
2024/01/11 05:40:13;;;;;;;22.60;8.10;;;1.50;1.00;;;;;;10432112;28;20274;-79
2024/01/11 05:45:35;;;;;;;11.53;5.63;;;1.40;99.90;;;;;;10427135;28;20194;-79
2024/01/11 05:51:00;;;;;;;15.13;7.30;;;1.50;1.00;;;;;;10400067;28;20275;-79
2024/01/11 05:56:21;;;;;;;21.80;7.20;;;1.50;99.90;;;;;;10412223;28;20205;-79
2024/01/11 06:01:44;;;;;;;14.77;6.43;;;1.50;70.60;;;;;;10425665;28;20242;-79
2024/01/11 06:07:05;;;;;;;12.57;6.03;;;1.40;99.90;;;;;;10425552;28;20197;-78
2024/01/11 06:12:26;;;;;;;11.40;5.17;;;1.50;99.90;;;;;;10425266;28;20230;-79
2024/01/11 06:17:47;;;;;;;11.33;5.83;;;1.40;1.00;;;;;;10437057;28;20434;-79
2024/01/11 06:23:09;;;;;;;11.37;6.00;;;1.40;1.00;;;;;;10465875;28;20299;-80
2024/01/11 06:28:30;;;;;;;11.90;6.73;;;1.50;1.00;;;;;;10461328;28;20433;-79
2024/01/11 06:33:52;;;;;;;11.53;6.90;;;1.50;1.00;;;;;;10437790;28;20437;-79
2024/01/11 06:39:14;;;;;;;11.87;7.37;;;1.50;1.00;;;;;;10421088;28;20214;-79
2024/01/11 06:44:35;;;;;;;11.13;6.70;;;1.50;1.00;;;;;;10409775;28;20235;-81
2024/01/11 06:49:57;;;;;;;11.13;5.83;;;1.50;1.00;;;;;;10435180;28;20269;-79
2024/01/11 06:55:18;;;;;;;10.43;6.70;;;1.50;1.00;;;;;;10438364;28;20191;-81
2024/01/11 07:00:42;;;;;;;17.97;7.30;;;1.50;99.90;;;;;;10422777;28;20242;-80
2024/01/11 07:06:06;;;;;;;15.33;7.50;;;1.40;1.00;;;;;;10435864;28;20277;-80
2024/01/11 07:11:27;;;;;;;15.73;7.70;;;1.50;1.00;;;;;;10423241;28;20222;-80
2024/01/11 07:16:49;;;;;;;13.77;7.87;;;1.40;1.00;;;;;;10426039;28;20209;-80
2024/01/11 07:22:10;;;;;;;11.23;7.67;;;1.50;1.00;;;;;;10461361;28;20220;-80
2024/01/11 07:27:32;;;;;;;14.80;7.83;;;1.40;1.00;;;;;;10446211;28;20202;-79
2024/01/11 07:32:53;;;;;;;19.20;9.57;;;1.50;1.00;;;;;;10436594;28;20200;-80
2024/01/11 07:38:15;;;;;;;20.10;9.03;;;1.60;1.00;;;;;;10381233;28;20274;-80
2024/01/11 07:43:36;;;;;;;12.77;7.43;;;1.50;1.00;;;;;;10384423;28;20280;-80
2024/01/11 07:48:58;;;;;;;14.90;8.67;;;1.50;1.00;;;;;;10394615;28;20228;-79
2024/01/11 07:54:20;;;;;;;15.20;9.30;;;1.60;1.00;;;;;;10380940;28;20207;-79
2024/01/11 07:59:41;;;;;;;14.67;8.27;;;1.50;1.00;;;;;;10435011;28;20301;-79
2024/01/11 08:05:03;;;;;;;13.97;8.40;;;1.70;1.00;;;;;;10419777;28;20234;-80
2024/01/11 08:10:24;;;;;;;10.60;6.77;;;1.60;1.00;;;;;;10419921;28;20287;-81
2024/01/11 08:15:45;;;;;;;13.10;8.03;;;1.60;1.00;;;;;;10437435;28;20269;-82
2024/01/11 08:21:09;;;;;;;16.40;8.07;;;1.60;1.00;;;;;;10443712;28;20282;-81
2024/01/11 08:26:30;;;;;;;12.33;8.17;;;1.60;47.80;;;;;;10384398;28;20230;-81
2024/01/11 08:31:52;;;;;;;15.13;7.50;;;1.60;99.90;;;;;;10400680;28;20203;-80
2024/01/11 08:37:14;;;;;;;16.20;9.00;;;1.60;99.90;;;;;;10389534;28;20213;-83
2024/01/11 08:42:35;;;;;;;18.97;9.77;;;1.70;1.00;;;;;;10375720;28;20600;-82
2024/01/11 08:47:57;;;;;;;13.93;7.97;;;1.70;4.90;;;;;;10396206;28;20463;-80
2024/01/11 08:53:19;;;;;;;17.80;10.13;;;1.80;1.00;;;;;;10407037;28;20440;-79
2024/01/11 08:58:41;;;;;;;21.60;11.30;;;1.70;1.00;;;;;;10448570;28;20250;-80
2024/01/11 09:04:04;;;;;;;17.13;9.53;;;1.80;1.00;;;;;;10405503;28;20233;-80
2024/01/11 09:09:26;;;;;;;21.53;11.20;;;1.80;99.90;;;;;;10401138;28;20207;-83
2024/01/11 09:14:47;;;;;;;31.93;15.40;;;1.90;99.90;;;;;;10471383;28;20290;-87
2024/01/11 09:20:09;;;;;;;30.57;18.70;;;2.00;14.90;;;;;;10423952;28;20196;-84
2024/01/11 09:25:30;;;;;;;21.63;11.27;;;2.00;1.00;;;;;;10420455;28;20235;-85
2024/01/11 09:30:52;;;;;;;16.83;10.10;;;2.00;99.90;;;;;;10421281;28;20214;-85
2024/01/11 09:36:13;;;;;;;16.33;8.63;;;2.10;17.30;;;;;;10419015;28;20202;-86
2024/01/11 09:41:37;;;;;;;9.97;5.93;;;2.20;99.90;;;;;;10394605;28;20236;-84
2024/01/11 09:47:01;;;;;;;11.37;6.17;;;2.30;1.00;;;;;;10438808;28;20219;-85
2024/01/11 09:52:25;;;;;;;11.17;4.90;;;2.20;1.00;;;;;;10463126;28;20207;-84
2024/01/11 09:57:52;;;;;;;9.70;6.47;;;2.30;1.00;;;;;;10436398;28;20296;-82
2024/01/11 10:03:14;;;;;;;16.63;10.43;;;2.30;1.00;;;;;;10407381;28;20227;-85
2024/01/11 10:08:36;;;;;;;18.53;9.07;;;2.30;99.90;;;;;;10406689;28;20235;-82
2024/01/11 10:13:59;;;;;;;17.20;8.17;;;2.30;1.00;;;;;;10408282;28;20208;-84
2024/01/11 10:19:21;;;;;;;14.83;8.13;;;2.30;1.00;;;;;;10450767;28;20205;-84
2024/01/11 10:24:43;;;;;;;11.10;5.80;;;2.30;99.90;;;;;;10420092;28;20297;-84
2024/01/11 10:30:07;;;;;;;11.90;6.17;;;2.30;49.70;;;;;;10409101;28;20216;-81
2024/01/11 10:35:29;;;;;;;13.20;6.37;;;2.30;99.90;;;;;;10432967;28;20302;-80
2024/01/11 10:40:52;;;;;;;12.33;6.47;;;2.30;1.00;;;;;;10430511;28;20233;-83
2024/01/11 10:46:16;;;;;;;14.83;7.00;;;2.40;1.00;;;;;;10390895;28;20512;-83
2024/01/11 10:51:40;;;;;;;9.47;5.37;;;2.50;99.90;;;;;;10394982;28;20428;-89
2024/01/11 10:57:04;;;;;;;12.83;6.07;;;2.60;99.90;;;;;;10416234;28;20240;-86
2024/01/11 11:02:26;;;;;;;12.83;5.80;;;2.60;1.00;;;;;;10432073;28;20364;-80
2024/01/11 11:07:50;;;;;;;11.90;6.33;;;2.50;1.00;;;;;;10414365;28;20359;-82
2024/01/11 11:13:17;;;;;;;18.93;5.23;;;2.50;1.00;;;;;;10415803;28;20216;-81
2024/01/11 11:18:38;;;;;;;15.70;7.23;;;2.40;1.00;;;;;;10419341;28;20192;-82
2024/01/11 11:24:00;;;;;;;10.63;6.17;;;2.40;1.00;;;;;;10415504;28;20289;-82
2024/01/11 11:29:21;;;;;;;13.33;6.33;;;2.40;99.90;;;;;;10431593;28;20212;-83
2024/01/11 11:34:47;;;;;;;14.50;5.90;;;2.40;99.90;;;;;;10417810;28;20514;-81
2024/01/11 11:40:10;;;;;;;7.67;4.63;;;2.40;1.00;;;;;;10402039;28;20207;-81
2024/01/11 11:45:32;;;;;;;11.93;5.93;;;2.50;1.00;;;;;;10430466;28;20399;-82
2024/01/11 11:51:13;;;;;;;9.63;5.63;;;2.40;1.00;;;;;;10416268;28;20213;-82
2024/01/11 11:56:36;;;;;;;7.20;4.40;;;2.50;99.90;;;;;;10417201;28;20212;-81
2024/01/11 12:01:59;;;;;;;13.17;5.33;;;2.50;1.00;;;;;;10416122;28;20259;-81
2024/01/11 12:07:22;;;;;;;10.83;5.50;;;2.50;99.90;;;;;;10408637;28;20216;-85
2024/01/11 12:12:43;;;;;;;12.30;5.63;;;2.60;1.00;;;;;;10452483;28;20480;-87
2024/01/11 12:18:06;;;;;;;11.90;6.20;;;2.50;99.90;;;;;;10431778;28;20198;-81
2024/01/11 12:23:32;;;;;;;14.00;5.80;;;2.50;1.00;;;;;;10414339;28;20436;-80
2024/01/11 12:28:54;;;;;;;11.97;5.60;;;2.50;99.90;;;;;;10377939;28;20397;-80
2024/01/11 12:34:16;;;;;;;12.30;6.00;;;2.50;1.00;;;;;;10409889;28;20496;-87
2024/01/11 12:39:38;;;;;;;10.60;6.07;;;2.60;1.00;;;;;;10430218;28;20243;-81
2024/01/11 12:45:00;;;;;;;10.70;6.00;;;2.50;1.00;;;;;;10414553;28;20221;-80
2024/01/11 12:50:22;;;;;;;10.90;6.10;;;2.70;1.00;;;;;;10390182;28;20550;-81
2024/01/11 12:55:49;;;;;;;7.17;5.07;;;2.70;99.90;;;;;;10399375;28;20252;-82
2024/01/11 13:01:12;;;;;;;8.17;4.83;;;2.70;99.90;;;;;;10409613;28;20439;-84
2024/01/11 13:06:37;;;;;;;8.83;4.60;;;2.90;99.90;;;;;;10411797;28;20267;-80
2024/01/11 13:11:59;;;;;;;8.23;4.37;;;2.80;1.00;;;;;;10381675;28;20217;-84
2024/01/11 13:17:21;;;;;;;10.80;5.17;;;2.70;99.90;;;;;;10376502;28;20197;-81
2024/01/11 13:22:42;;;;;;;12.37;5.93;;;2.70;99.90;;;;;;10436210;28;20304;-83
2024/01/11 13:28:04;;;;;;;13.17;5.47;;;2.70;28.90;;;;;;10433311;28;20204;-82
2024/01/11 13:33:25;;;;;;;18.33;7.03;;;2.70;1.00;;;;;;10396277;28;20221;-83
2024/01/11 13:38:46;;;;;;;18.03;7.70;;;2.70;1.00;;;;;;10381196;28;20225;-82
2024/01/11 13:44:09;;;;;;;15.60;6.60;;;2.70;1.00;;;;;;10394289;28;20228;-82
2024/01/11 13:49:31;;;;;;;15.23;7.03;;;2.60;99.90;;;;;;10435082;28;20192;-81
2024/01/11 13:54:52;;;;;;;11.50;6.60;;;2.60;1.00;;;;;;10421384;28;20799;-81
2024/01/11 14:00:14;;;;;;;18.37;8.67;;;2.60;1.00;;;;;;10405133;28;20274;-80
2024/01/11 14:05:36;;;;;;;18.73;9.00;;;2.60;99.90;;;;;;10433920;28;20224;-82
2024/01/11 14:10:58;;;;;;;29.47;12.73;;;2.60;99.90;;;;;;10421091;28;20506;-85
2024/01/11 14:16:19;;;;;;;30.23;13.10;;;2.60;99.90;;;;;;10435697;28;20197;-82
2024/01/11 14:21:40;;;;;;;22.00;9.70;;;2.60;99.90;;;;;;10419554;28;20231;-82
2024/01/11 14:27:02;;;;;;;9.77;5.67;;;2.60;1.00;;;;;;10428782;28;20434;-82
2024/01/11 14:32:26;;;;;;;11.50;4.93;;;2.50;1.00;;;;;;10387494;28;20204;-82
2024/01/11 14:37:49;;;;;;;7.07;4.40;;;2.50;1.00;;;;;;10378581;28;20444;-82
2024/01/11 14:43:10;;;;;;;7.03;4.93;;;2.60;1.00;;;;;;10386857;28;20227;-80
2024/01/11 14:48:32;;;;;;;8.37;4.67;;;2.60;1.00;;;;;;10402982;28;20215;-81
2024/01/11 14:53:53;;;;;;;10.70;5.93;;;2.60;19.70;;;;;;10433068;28;20207;-81
2024/01/11 14:59:17;;;;;;;12.07;7.07;;;2.50;1.00;;;;;;10402968;28;20311;-81
2024/01/11 15:04:38;;;;;;;10.23;5.60;;;2.60;1.00;;;;;;10428670;28;20258;-82
2024/01/11 15:10:00;;;;;;;14.60;6.87;;;2.60;11.30;;;;;;10399647;28;20192;-81
2024/01/11 15:15:21;;;;;;;15.20;7.73;;;2.60;1.00;;;;;;10416962;28;20204;-80
2024/01/11 15:20:43;;;;;;;17.67;8.00;;;2.60;1.00;;;;;;10416759;28;20196;-81
2024/01/11 15:26:04;;;;;;;19.30;8.90;;;2.50;1.00;;;;;;10424253;28;20292;-81
2024/01/11 15:31:27;;;;;;;34.70;14.33;;;2.50;99.90;;;;;;10426923;28;20205;-82
2024/01/11 15:36:48;;;;;;;60.60;22.60;;;2.40;99.90;;;;;;10393769;28;20209;-83
2024/01/11 15:42:10;;;;;;;52.40;22.63;;;2.40;99.90;;;;;;10415456;28;20254;-81
2024/01/11 15:47:33;;;;;;;43.27;21.10;;;2.40;99.90;;;;;;10389367;28;20212;-81
2024/01/11 15:52:54;;;;;;;23.67;12.03;;;2.40;1.00;;;;;;10392689;28;20267;-82
2024/01/11 15:58:16;;;;;;;26.93;12.83;;;2.40;68.60;;;;;;10407377;28;20309;-81
2024/01/11 16:03:38;;;;;;;18.57;9.13;;;2.40;99.90;;;;;;10423526;28;20267;-87
2024/01/11 16:09:05;;;;;;;23.73;11.63;;;2.40;1.00;;;;;;10416419;28;20240;-79
2024/01/11 16:14:28;;;;;;;31.97;12.27;;;2.40;1.00;;;;;;10423799;28;20200;-85
2024/01/11 16:19:49;;;;;;;12.07;5.93;;;2.50;1.00;;;;;;10435091;28;20195;-84
2024/01/11 16:25:11;;;;;;;9.23;4.60;;;2.40;99.90;;;;;;10420415;28;20232;-82
2024/01/11 16:30:32;;;;;;;26.30;9.70;;;2.30;1.00;;;;;;10422398;28;20204;-86
2024/01/11 16:35:55;;;;;;;13.10;6.53;;;2.30;1.00;;;;;;10422625;28;20206;-85
2024/01/11 16:41:18;;;;;;;30.20;12.47;;;2.20;1.00;;;;;;10429927;28;20216;-80
2024/01/11 16:46:40;;;;;;;10.70;5.37;;;2.20;1.00;;;;;;10458963;28;20219;-85
2024/01/11 16:52:04;;;;;;;10.33;4.23;;;2.20;1.00;;;;;;10434639;28;20201;-84
2024/01/11 16:57:25;;;;;;;14.33;6.30;;;2.10;1.00;;;;;;10422620;28;20280;-80
2024/01/11 17:02:47;;;;;;;20.73;8.27;;;2.10;99.90;;;;;;10426245;28;20479;-85
2024/01/11 17:08:08;;;;;;;13.27;5.60;;;2.00;1.00;;;;;;10425071;28;20195;-82
2024/01/11 17:13:30;;;;;;;10.47;3.90;;;2.00;99.90;;;;;;10456886;28;20192;-84
2024/01/11 17:18:51;;;;;;;12.63;4.27;;;2.00;1.00;;;;;;10442150;28;20392;-80
2024/01/11 17:24:12;;;;;;;15.27;5.93;;;1.90;1.00;;;;;;10441569;28;20285;-82
2024/01/11 17:29:41;;;;;;;20.10;10.33;;;1.90;1.00;;;;;;10434559;28;20398;-85
2024/01/11 17:35:03;;;;;;;21.47;12.23;;;1.80;1.00;;;;;;10427612;28;20200;-81
2024/01/11 17:40:25;;;;;;;18.83;10.60;;;1.80;1.00;;;;;;10413171;28;20388;-80
2024/01/11 17:45:48;;;;;;;19.30;9.03;;;1.70;1.00;;;;;;10427972;28;20527;-81
2024/01/11 17:51:11;;;;;;;22.07;10.07;;;1.70;1.00;;;;;;10422578;28;20267;-81
2024/01/11 17:56:33;;;;;;;22.10;10.70;;;1.60;1.00;;;;;;10426662;28;20558;-85
2024/01/11 18:01:54;;;;;;;25.03;10.53;;;1.60;1.00;;;;;;10422572;28;20297;-80
2024/01/11 18:07:16;;;;;;;20.00;11.03;;;1.50;1.00;;;;;;10453634;28;20398;-84
2024/01/11 18:12:37;;;;;;;28.80;14.77;;;1.50;1.00;;;;;;10448079;28;20257;-82
2024/01/11 18:17:59;;;;;;;31.57;14.67;;;1.50;69.40;;;;;;10425990;28;20479;-84
2024/01/11 18:23:20;;;;;;;27.83;13.20;;;1.50;1.00;;;;;;10411731;28;20304;-82
2024/01/11 18:28:42;;;;;;;24.47;11.07;;;1.50;24.40;;;;;;10438067;28;20480;-85
2024/01/11 18:34:03;;;;;;;22.90;10.73;;;1.40;99.90;;;;;;10439372;28;20509;-80
2024/01/11 18:39:25;;;;;;;18.27;9.70;;;1.40;1.00;;;;;;10425089;28;20281;-84
2024/01/11 18:44:46;;;;;;;23.70;11.40;;;1.40;1.00;;;;;;10418179;28;20300;-79
2024/01/11 18:50:09;;;;;;;17.30;8.27;;;1.40;1.00;;;;;;10384061;28;20261;-81
2024/01/11 18:55:30;;;;;;;33.17;13.47;;;1.40;99.90;;;;;;10406416;28;20215;-82
2024/01/11 19:00:51;;;;;;;38.20;18.73;;;1.30;99.90;;;;;;10423184;28;20239;-81
2024/01/11 19:06:14;;;;;;;42.00;23.37;;;1.30;99.90;;;;;;10420279;28;20261;-80
2024/01/11 19:11:36;;;;;;;32.70;17.37;;;1.20;99.90;;;;;;10438464;28;20283;-80
2024/01/11 19:16:58;;;;;;;29.67;15.30;;;1.20;99.90;;;;;;10478756;28;20474;-84
2024/01/11 19:22:19;;;;;;;21.10;11.70;;;1.20;1.00;;;;;;10478117;28;20274;-80
2024/01/11 19:27:41;;;;;;;21.93;8.23;;;1.20;1.00;;;;;;10408657;28;20203;-84
2024/01/11 19:33:02;;;;;;;14.67;7.27;;;1.20;1.00;;;;;;10395755;28;20224;-80
2024/01/11 19:38:24;;;;;;;28.47;12.10;;;1.20;1.00;;;;;;10396106;28;20480;-82
2024/01/11 19:43:45;;;;;;;39.87;17.83;;;1.30;99.90;;;;;;10395463;28;20302;-81
2024/01/11 19:49:07;;;;;;;58.87;28.10;;;1.20;99.90;;;;;;10404642;28;20185;-83
2024/01/11 19:54:29;;;;;;;64.80;28.63;;;1.10;99.90;;;;;;10382086;28;20235;-83
2024/01/11 19:59:50;;;;;;;46.87;21.80;;;1.10;99.90;;;;;;10398894;28;20522;-82
2024/01/11 20:05:12;;;;;;;40.87;19.07;;;1.10;99.90;;;;;;10421336;28;20301;-81
2024/01/11 20:10:34;;;;;;;47.77;20.03;;;1.00;99.90;;;;;;10435856;28;20279;-82
2024/01/11 20:15:56;;;;;;;35.53;14.43;;;1.00;99.90;;;;;;10421650;28;20207;-84
2024/01/11 20:21:18;;;;;;;22.60;10.17;;;0.90;99.90;;;;;;10435525;28;20276;-81
2024/01/11 20:26:39;;;;;;;27.97;12.97;;;0.90;1.00;;;;;;10424431;28;20549;-81
2024/01/11 20:32:03;;;;;;;16.60;8.47;;;0.90;1.00;;;;;;10386577;28;20247;-83
2024/01/11 20:37:24;;;;;;;16.07;6.47;;;0.90;40.70;;;;;;10367332;28;20197;-80
2024/01/11 20:42:46;;;;;;;17.40;7.23;;;0.90;1.00;;;;;;10394354;28;20515;-84
2024/01/11 20:48:07;;;;;;;15.20;6.53;;;0.90;1.00;;;;;;10410776;28;20206;-84
2024/01/11 20:53:28;;;;;;;22.93;8.10;;;0.90;1.00;;;;;;10380688;28;20398;-84
2024/01/11 20:58:50;;;;;;;16.50;7.13;;;1.00;1.00;;;;;;10411052;28;20239;-82
2024/01/11 21:04:11;;;;;;;27.30;10.07;;;1.00;1.00;;;;;;10429083;28;20258;-83
2024/01/11 21:09:33;;;;;;;26.67;11.67;;;1.10;1.00;;;;;;10408030;28;20204;-83
2024/01/11 21:14:54;;;;;;;22.80;10.83;;;1.10;1.00;;;;;;10380224;28;20212;-83
2024/01/11 21:20:15;;;;;;;21.70;8.87;;;1.10;1.00;;;;;;10380049;28;20567;-82
2024/01/11 21:25:37;;;;;;;20.23;8.10;;;1.10;1.00;;;;;;10383756;28;20291;-80
2024/01/11 21:30:59;;;;;;;17.97;7.67;;;1.10;1.00;;;;;;10404161;28;20227;-81
2024/01/11 21:36:24;;;;;;;17.30;6.87;;;1.10;99.90;;;;;;10400515;28;20286;-80
2024/01/11 21:41:45;;;;;;;18.57;6.60;;;1.10;99.90;;;;;;10400624;28;20483;-81
2024/01/11 21:47:07;;;;;;;17.83;5.60;;;1.10;99.90;;;;;;10399948;28;20254;-82
2024/01/11 21:52:28;;;;;;;15.13;5.83;;;1.10;99.90;;;;;;10402410;28;20272;-82
2024/01/11 21:57:50;;;;;;;15.97;5.87;;;1.20;99.90;;;;;;10427443;28;20468;-81
2024/01/11 22:03:11;;;;;;;14.60;5.50;;;1.20;52.10;;;;;;10409227;28;20459;-81
2024/01/11 22:08:33;;;;;;;11.87;5.33;;;1.20;1.00;;;;;;10422618;28;20197;-81
2024/01/11 22:13:54;;;;;;;13.33;4.53;;;1.20;63.40;;;;;;10413099;28;20425;-80
2024/01/11 22:19:15;;;;;;;13.93;5.07;;;1.20;1.00;;;;;;10398457;28;20204;-83
2024/01/11 22:24:37;;;;;;;13.50;5.63;;;1.20;1.00;;;;;;10384344;28;20539;-80
2024/01/11 22:29:59;;;;;;;15.20;6.17;;;1.10;1.00;;;;;;10408835;28;20562;-80
2024/01/11 22:35:20;;;;;;;11.07;4.27;;;1.10;1.00;;;;;;10412203;28;20239;-82
2024/01/11 22:40:42;;;;;;;13.20;5.03;;;1.10;1.00;;;;;;10397582;28;20294;-82
2024/01/11 22:46:03;;;;;;;16.20;5.17;;;1.00;1.00;;;;;;10397243;28;20239;-83
2024/01/11 22:51:26;;;;;;;13.07;4.50;;;0.90;1.00;;;;;;10383512;28;20242;-84
2024/01/11 22:56:47;;;;;;;10.67;4.80;;;0.80;1.00;;;;;;10416296;28;20390;-80
2024/01/11 23:02:11;;;;;;;11.30;5.13;;;0.70;1.00;;;;;;10404581;28;20524;-84
2024/01/11 23:07:33;;;;;;;10.90;4.60;;;0.60;1.00;;;;;;10428060;28;20537;-80
2024/01/11 23:12:58;;;;;;;14.43;5.77;;;0.60;1.00;;;;;;10423509;28;20241;-82
2024/01/11 23:18:19;;;;;;;12.53;5.87;;;0.50;1.00;;;;;;10437301;28;20496;-85
2024/01/11 23:23:41;;;;;;;13.17;5.93;;;0.40;94.00;;;;;;10437054;28;20289;-80
2024/01/11 23:29:03;;;;;;;14.97;5.57;;;0.40;20.80;;;;;;10435718;28;20208;-82
2024/01/11 23:34:24;;;;;;;14.20;6.33;;;0.30;5.70;;;;;;10415223;28;20280;-84
2024/01/11 23:39:47;;;;;;;12.17;6.57;;;0.30;24.30;;;;;;10395662;28;20267;-80
2024/01/11 23:45:09;;;;;;;15.67;6.60;;;0.30;1.00;;;;;;10395137;28;20232;-80
2024/01/11 23:50:30;;;;;;;18.33;7.20;;;0.20;1.00;;;;;;10380930;28;20280;-83
2024/01/11 23:55:53;;;;;;;14.03;6.30;;;0.10;1.00;;;;;;10406648;28;20245;-82
